sensor_id;sensor_type;location;lat;lon;timestamp;temperature;humidity
24470;DHT22;12635;50.852;5.676;2023-08-06T00:02:23;14.40;99.90
24470;DHT22;12635;50.852;5.676;2023-08-06T00:04:50;14.40;99.90
24470;DHT22;12635;50.852;5.676;2023-08-06T00:07:18;14.30;99.90
24470;DHT22;12635;50.852;5.676;2023-08-06T00:09:45;14.30;99.90
24470;DHT22;12635;50.852;5.676;2023-08-06T00:12:12;14.30;99.90
24470;DHT22;12635;50.852;5.676;2023-08-06T00:14:38;14.40;99.90
24470;DHT22;12635;50.852;5.676;2023-08-06T00:17:05;14.40;99.90
24470;DHT22;12635;50.852;5.676;2023-08-06T00:19:33;14.40;99.90
24470;DHT22;12635;50.852;5.676;2023-08-06T00:22:00;14.40;99.90
24470;DHT22;12635;50.852;5.676;2023-08-06T00:24:28;14.40;99.90
24470;DHT22;12635;50.852;5.676;2023-08-06T00:26:55;14.40;99.90
24470;DHT22;12635;50.852;5.676;2023-08-06T00:29:22;14.40;99.90
24470;DHT22;12635;50.852;5.676;2023-08-06T00:31:48;14.40;99.90
24470;DHT22;12635;50.852;5.676;2023-08-06T00:34:15;14.40;99.90
24470;DHT22;12635;50.852;5.676;2023-08-06T00:36:43;14.40;99.90
24470;DHT22;12635;50.852;5.676;2023-08-06T00:39:10;14.30;99.90
24470;DHT22;12635;50.852;5.676;2023-08-06T00:41:37;14.40;99.90
24470;DHT22;12635;50.852;5.676;2023-08-06T00:44:04;14.40;99.90
24470;DHT22;12635;50.852;5.676;2023-08-06T00:46:31;14.40;99.90
24470;DHT22;12635;50.852;5.676;2023-08-06T00:48:58;14.40;99.90
24470;DHT22;12635;50.852;5.676;2023-08-06T00:51:26;14.40;99.90
24470;DHT22;12635;50.852;5.676;2023-08-06T00:53:54;14.40;99.90
24470;DHT22;12635;50.852;5.676;2023-08-06T00:56:21;14.30;99.90
24470;DHT22;12635;50.852;5.676;2023-08-06T00:58:48;14.30;99.90
24470;DHT22;12635;50.852;5.676;2023-08-06T01:01:15;14.20;99.90
24470;DHT22;12635;50.852;5.676;2023-08-06T01:03:42;14.20;99.90
24470;DHT22;12635;50.852;5.676;2023-08-06T01:06:09;14.20;99.90
24470;DHT22;12635;50.852;5.676;2023-08-06T01:08:37;14.20;99.90
24470;DHT22;12635;50.852;5.676;2023-08-06T01:11:11;14.20;99.90
24470;DHT22;12635;50.852;5.676;2023-08-06T01:13:42;14.20;99.90
24470;DHT22;12635;50.852;5.676;2023-08-06T01:16:12;14.20;99.90
24470;DHT22;12635;50.852;5.676;2023-08-06T01:18:41;14.20;99.90
24470;DHT22;12635;50.852;5.676;2023-08-06T01:21:13;14.20;99.90
24470;DHT22;12635;50.852;5.676;2023-08-06T01:23:40;14.20;99.90
24470;DHT22;12635;50.852;5.676;2023-08-06T01:26:10;14.10;99.90
24470;DHT22;12635;50.852;5.676;2023-08-06T01:28:40;14.10;99.90
24470;DHT22;12635;50.852;5.676;2023-08-06T01:31:10;14.00;99.90
24470;DHT22;12635;50.852;5.676;2023-08-06T01:33:40;14.00;99.90
24470;DHT22;12635;50.852;5.676;2023-08-06T01:36:13;14.10;99.90
24470;DHT22;12635;50.852;5.676;2023-08-06T01:38:41;14.10;99.90
24470;DHT22;12635;50.852;5.676;2023-08-06T01:41:08;14.10;99.90
24470;DHT22;12635;50.852;5.676;2023-08-06T01:43:35;14.10;99.90
24470;DHT22;12635;50.852;5.676;2023-08-06T01:46:02;14.20;99.90
24470;DHT22;12635;50.852;5.676;2023-08-06T01:48:29;14.20;99.90
24470;DHT22;12635;50.852;5.676;2023-08-06T01:50:55;14.20;99.90
24470;DHT22;12635;50.852;5.676;2023-08-06T01:53:24;14.30;99.90
24470;DHT22;12635;50.852;5.676;2023-08-06T01:55:51;14.30;99.90
24470;DHT22;12635;50.852;5.676;2023-08-06T01:58:17;14.30;99.90
24470;DHT22;12635;50.852;5.676;2023-08-06T02:00:44;14.30;99.90
24470;DHT22;12635;50.852;5.676;2023-08-06T02:03:11;14.30;99.90
24470;DHT22;12635;50.852;5.676;2023-08-06T02:05:38;14.40;99.90
24470;DHT22;12635;50.852;5.676;2023-08-06T02:08:06;14.40;99.90
24470;DHT22;12635;50.852;5.676;2023-08-06T02:10:34;14.40;99.90
24470;DHT22;12635;50.852;5.676;2023-08-06T02:13:01;14.40;99.90
24470;DHT22;12635;50.852;5.676;2023-08-06T02:15:28;14.30;99.90
24470;DHT22;12635;50.852;5.676;2023-08-06T02:17:55;14.30;99.90
24470;DHT22;12635;50.852;5.676;2023-08-06T02:20:22;14.30;99.90
24470;DHT22;12635;50.852;5.676;2023-08-06T02:22:49;14.30;99.90
24470;DHT22;12635;50.852;5.676;2023-08-06T02:25:15;14.20;99.90
24470;DHT22;12635;50.852;5.676;2023-08-06T02:27:44;14.20;99.90
24470;DHT22;12635;50.852;5.676;2023-08-06T02:30:11;14.20;99.90
24470;DHT22;12635;50.852;5.676;2023-08-06T02:32:37;14.20;99.90
24470;DHT22;12635;50.852;5.676;2023-08-06T02:35:05;14.20;99.90
24470;DHT22;12635;50.852;5.676;2023-08-06T02:37:33;14.20;99.90
24470;DHT22;12635;50.852;5.676;2023-08-06T02:39:59;14.20;99.90
24470;DHT22;12635;50.852;5.676;2023-08-06T02:42:27;14.20;99.90
24470;DHT22;12635;50.852;5.676;2023-08-06T02:44:55;14.20;99.90
24470;DHT22;12635;50.852;5.676;2023-08-06T02:47:22;14.20;99.90
24470;DHT22;12635;50.852;5.676;2023-08-06T02:49:49;14.20;99.90
24470;DHT22;12635;50.852;5.676;2023-08-06T02:52:16;14.20;99.90
24470;DHT22;12635;50.852;5.676;2023-08-06T02:54:43;14.20;99.90
24470;DHT22;12635;50.852;5.676;2023-08-06T02:57:10;14.20;99.90
24470;DHT22;12635;50.852;5.676;2023-08-06T02:59:36;14.20;99.90
24470;DHT22;12635;50.852;5.676;2023-08-06T03:02:05;14.20;99.90
24470;DHT22;12635;50.852;5.676;2023-08-06T03:04:32;14.10;99.90
24470;DHT22;12635;50.852;5.676;2023-08-06T03:06:59;14.10;99.90
24470;DHT22;12635;50.852;5.676;2023-08-06T03:09:25;14.10;99.90
24470;DHT22;12635;50.852;5.676;2023-08-06T03:11:52;14.10;99.90
24470;DHT22;12635;50.852;5.676;2023-08-06T03:14:19;14.20;99.90
24470;DHT22;12635;50.852;5.676;2023-08-06T03:16:46;14.20;99.90
24470;DHT22;12635;50.852;5.676;2023-08-06T03:19:14;14.20;99.90
24470;DHT22;12635;50.852;5.676;2023-08-06T03:21:41;14.20;99.90
24470;DHT22;12635;50.852;5.676;2023-08-06T03:24:08;14.10;99.90
24470;DHT22;12635;50.852;5.676;2023-08-06T03:26:35;14.20;99.90
24470;DHT22;12635;50.852;5.676;2023-08-06T03:29:02;14.20;99.90
24470;DHT22;12635;50.852;5.676;2023-08-06T03:31:29;14.20;99.90
24470;DHT22;12635;50.852;5.676;2023-08-06T03:33:56;14.20;99.90
24470;DHT22;12635;50.852;5.676;2023-08-06T03:36:24;14.20;99.90
24470;DHT22;12635;50.852;5.676;2023-08-06T03:38:51;14.20;99.90
24470;DHT22;12635;50.852;5.676;2023-08-06T03:41:18;14.30;99.90
24470;DHT22;12635;50.852;5.676;2023-08-06T03:43:45;14.30;99.90
24470;DHT22;12635;50.852;5.676;2023-08-06T03:46:11;14.30;99.90
24470;DHT22;12635;50.852;5.676;2023-08-06T03:48:38;14.30;99.90
24470;DHT22;12635;50.852;5.676;2023-08-06T03:51:05;14.30;99.90
24470;DHT22;12635;50.852;5.676;2023-08-06T03:53:33;14.20;99.90
24470;DHT22;12635;50.852;5.676;2023-08-06T03:56:00;14.30;99.90
24470;DHT22;12635;50.852;5.676;2023-08-06T03:58:27;14.30;99.90
24470;DHT22;12635;50.852;5.676;2023-08-06T04:00:58;14.30;99.90
24470;DHT22;12635;50.852;5.676;2023-08-06T04:03:24;14.40;99.90
24470;DHT22;12635;50.852;5.676;2023-08-06T04:05:51;14.40;99.90
24470;DHT22;12635;50.852;5.676;2023-08-06T04:08:18;14.40;99.90
24470;DHT22;12635;50.852;5.676;2023-08-06T04:10:48;14.30;99.90
24470;DHT22;12635;50.852;5.676;2023-08-06T04:13:15;14.30;99.90
24470;DHT22;12635;50.852;5.676;2023-08-06T04:15:42;14.30;99.90
24470;DHT22;12635;50.852;5.676;2023-08-06T04:18:09;14.40;99.90
24470;DHT22;12635;50.852;5.676;2023-08-06T04:20:42;14.40;99.90
24470;DHT22;12635;50.852;5.676;2023-08-06T04:23:09;14.40;99.90
24470;DHT22;12635;50.852;5.676;2023-08-06T04:25:36;14.30;99.90
24470;DHT22;12635;50.852;5.676;2023-08-06T04:28:04;14.30;99.90
24470;DHT22;12635;50.852;5.676;2023-08-06T04:30:31;14.40;99.90
24470;DHT22;12635;50.852;5.676;2023-08-06T04:32:58;14.30;99.90
24470;DHT22;12635;50.852;5.676;2023-08-06T04:35:25;14.30;99.90
24470;DHT22;12635;50.852;5.676;2023-08-06T04:37:52;14.40;99.90
24470;DHT22;12635;50.852;5.676;2023-08-06T04:40:18;14.40;99.90
24470;DHT22;12635;50.852;5.676;2023-08-06T04:42:45;14.40;99.90
24470;DHT22;12635;50.852;5.676;2023-08-06T04:45:14;14.40;99.90
24470;DHT22;12635;50.852;5.676;2023-08-06T04:47:40;14.40;99.90
24470;DHT22;12635;50.852;5.676;2023-08-06T04:50:08;14.40;99.90
24470;DHT22;12635;50.852;5.676;2023-08-06T04:52:35;14.40;99.90
24470;DHT22;12635;50.852;5.676;2023-08-06T04:55:02;14.40;99.90
24470;DHT22;12635;50.852;5.676;2023-08-06T04:57:31;14.40;99.90
24470;DHT22;12635;50.852;5.676;2023-08-06T04:59:58;14.40;99.90
24470;DHT22;12635;50.852;5.676;2023-08-06T05:02:26;14.40;99.90
24470;DHT22;12635;50.852;5.676;2023-08-06T05:04:53;14.40;99.90
24470;DHT22;12635;50.852;5.676;2023-08-06T05:07:20;14.40;99.90
24470;DHT22;12635;50.852;5.676;2023-08-06T05:09:47;14.40;99.90
24470;DHT22;12635;50.852;5.676;2023-08-06T05:12:13;14.40;99.90
24470;DHT22;12635;50.852;5.676;2023-08-06T05:14:40;14.40;99.90
24470;DHT22;12635;50.852;5.676;2023-08-06T05:17:07;14.40;99.90
24470;DHT22;12635;50.852;5.676;2023-08-06T05:19:35;14.40;99.90
24470;DHT22;12635;50.852;5.676;2023-08-06T05:22:03;14.40;99.90
24470;DHT22;12635;50.852;5.676;2023-08-06T05:24:30;14.40;99.90
24470;DHT22;12635;50.852;5.676;2023-08-06T05:26:56;14.40;99.90
24470;DHT22;12635;50.852;5.676;2023-08-06T05:29:23;14.40;99.90
24470;DHT22;12635;50.852;5.676;2023-08-06T05:31:50;14.40;99.90
24470;DHT22;12635;50.852;5.676;2023-08-06T05:34:17;14.50;99.90
24470;DHT22;12635;50.852;5.676;2023-08-06T05:36:45;14.50;99.90
24470;DHT22;12635;50.852;5.676;2023-08-06T05:39:12;14.50;99.90
24470;DHT22;12635;50.852;5.676;2023-08-06T05:41:39;14.50;99.90
24470;DHT22;12635;50.852;5.676;2023-08-06T05:44:06;14.60;99.90
24470;DHT22;12635;50.852;5.676;2023-08-06T05:46:33;14.60;99.90
24470;DHT22;12635;50.852;5.676;2023-08-06T05:49:00;14.50;99.90
24470;DHT22;12635;50.852;5.676;2023-08-06T05:51:27;14.50;99.90
24470;DHT22;12635;50.852;5.676;2023-08-06T05:53:54;14.60;99.90
24470;DHT22;12635;50.852;5.676;2023-08-06T05:56:21;14.50;99.90
24470;DHT22;12635;50.852;5.676;2023-08-06T05:58:48;14.60;99.90
24470;DHT22;12635;50.852;5.676;2023-08-06T06:01:16;14.60;99.90
24470;DHT22;12635;50.852;5.676;2023-08-06T06:03:43;14.60;99.90
24470;DHT22;12635;50.852;5.676;2023-08-06T06:06:10;14.60;99.90
24470;DHT22;12635;50.852;5.676;2023-08-06T06:08:37;14.60;99.90
24470;DHT22;12635;50.852;5.676;2023-08-06T06:11:05;14.50;99.90
24470;DHT22;12635;50.852;5.676;2023-08-06T06:13:32;14.50;99.90
24470;DHT22;12635;50.852;5.676;2023-08-06T06:15:59;14.50;99.90
24470;DHT22;12635;50.852;5.676;2023-08-06T06:18:26;14.60;99.90
24470;DHT22;12635;50.852;5.676;2023-08-06T06:20:53;14.50;99.90
24470;DHT22;12635;50.852;5.676;2023-08-06T06:23:20;14.60;99.90
24470;DHT22;12635;50.852;5.676;2023-08-06T06:25:47;14.60;99.90
24470;DHT22;12635;50.852;5.676;2023-08-06T06:28:16;14.60;99.90
24470;DHT22;12635;50.852;5.676;2023-08-06T06:30:43;14.60;99.90
24470;DHT22;12635;50.852;5.676;2023-08-06T06:33:09;14.60;99.90
24470;DHT22;12635;50.852;5.676;2023-08-06T06:35:36;14.60;99.90
24470;DHT22;12635;50.852;5.676;2023-08-06T06:38:03;14.50;99.90
24470;DHT22;12635;50.852;5.676;2023-08-06T06:40:30;14.40;99.90
24470;DHT22;12635;50.852;5.676;2023-08-06T06:42:58;14.40;99.90
24470;DHT22;12635;50.852;5.676;2023-08-06T06:45:26;14.40;99.90
24470;DHT22;12635;50.852;5.676;2023-08-06T06:47:53;14.40;99.90
24470;DHT22;12635;50.852;5.676;2023-08-06T06:50:20;14.30;99.90
24470;DHT22;12635;50.852;5.676;2023-08-06T06:52:47;14.30;99.90
24470;DHT22;12635;50.852;5.676;2023-08-06T06:55:14;14.30;99.90
24470;DHT22;12635;50.852;5.676;2023-08-06T06:57:41;14.30;99.90
24470;DHT22;12635;50.852;5.676;2023-08-06T07:00:08;14.20;99.90
24470;DHT22;12635;50.852;5.676;2023-08-06T07:02:36;14.20;99.90
24470;DHT22;12635;50.852;5.676;2023-08-06T07:05:04;14.10;99.90
24470;DHT22;12635;50.852;5.676;2023-08-06T07:07:32;14.00;99.90
24470;DHT22;12635;50.852;5.676;2023-08-06T07:09:59;13.90;99.90
24470;DHT22;12635;50.852;5.676;2023-08-06T07:12:25;13.80;99.90
24470;DHT22;12635;50.852;5.676;2023-08-06T07:14:52;13.70;99.90
24470;DHT22;12635;50.852;5.676;2023-08-06T07:17:19;13.70;99.90
24470;DHT22;12635;50.852;5.676;2023-08-06T07:19:47;13.70;99.90
24470;DHT22;12635;50.852;5.676;2023-08-06T07:22:14;13.60;99.90
24470;DHT22;12635;50.852;5.676;2023-08-06T07:24:41;13.60;99.90
24470;DHT22;12635;50.852;5.676;2023-08-06T07:27:08;13.70;99.90
24470;DHT22;12635;50.852;5.676;2023-08-06T07:29:35;13.70;99.90
24470;DHT22;12635;50.852;5.676;2023-08-06T07:32:02;13.70;99.90
24470;DHT22;12635;50.852;5.676;2023-08-06T07:34:29;13.70;99.90
24470;DHT22;12635;50.852;5.676;2023-08-06T07:36:57;13.70;99.90
24470;DHT22;12635;50.852;5.676;2023-08-06T07:39:24;13.70;99.90
24470;DHT22;12635;50.852;5.676;2023-08-06T07:41:51;13.80;99.90
24470;DHT22;12635;50.852;5.676;2023-08-06T07:44:18;13.80;99.90
24470;DHT22;12635;50.852;5.676;2023-08-06T07:46:45;13.80;99.90
24470;DHT22;12635;50.852;5.676;2023-08-06T07:49:11;13.90;99.90
24470;DHT22;12635;50.852;5.676;2023-08-06T07:51:38;14.00;99.90
24470;DHT22;12635;50.852;5.676;2023-08-06T07:54:07;14.00;99.90
24470;DHT22;12635;50.852;5.676;2023-08-06T07:56:34;14.00;99.90
24470;DHT22;12635;50.852;5.676;2023-08-06T07:59:02;13.90;99.90
24470;DHT22;12635;50.852;5.676;2023-08-06T08:01:29;13.90;99.90
24470;DHT22;12635;50.852;5.676;2023-08-06T08:03:55;14.00;99.90
24470;DHT22;12635;50.852;5.676;2023-08-06T08:06:22;13.90;99.90
24470;DHT22;12635;50.852;5.676;2023-08-06T08:08:49;13.90;99.90
24470;DHT22;12635;50.852;5.676;2023-08-06T08:11:20;13.80;99.90
24470;DHT22;12635;50.852;5.676;2023-08-06T08:13:47;13.90;99.90
24470;DHT22;12635;50.852;5.676;2023-08-06T08:16:13;13.80;99.90
24470;DHT22;12635;50.852;5.676;2023-08-06T08:18:40;13.90;99.90
24470;DHT22;12635;50.852;5.676;2023-08-06T08:21:07;13.90;99.90
24470;DHT22;12635;50.852;5.676;2023-08-06T08:23:34;13.90;99.90
24470;DHT22;12635;50.852;5.676;2023-08-06T08:26:01;13.90;99.90
24470;DHT22;12635;50.852;5.676;2023-08-06T08:28:30;13.90;99.90
24470;DHT22;12635;50.852;5.676;2023-08-06T08:30:57;14.00;99.90
24470;DHT22;12635;50.852;5.676;2023-08-06T08:33:24;14.00;99.90
24470;DHT22;12635;50.852;5.676;2023-08-06T08:35:51;14.00;99.90
24470;DHT22;12635;50.852;5.676;2023-08-06T08:38:18;14.10;99.90
24470;DHT22;12635;50.852;5.676;2023-08-06T08:40:45;14.10;99.90
24470;DHT22;12635;50.852;5.676;2023-08-06T08:43:13;14.10;99.90
24470;DHT22;12635;50.852;5.676;2023-08-06T08:45:42;14.20;99.90
24470;DHT22;12635;50.852;5.676;2023-08-06T08:48:09;14.20;99.90
24470;DHT22;12635;50.852;5.676;2023-08-06T08:50:39;14.30;99.90
24470;DHT22;12635;50.852;5.676;2023-08-06T08:53:06;14.40;99.90
24470;DHT22;12635;50.852;5.676;2023-08-06T08:55:33;14.50;99.90
24470;DHT22;12635;50.852;5.676;2023-08-06T08:58:00;14.50;99.90
24470;DHT22;12635;50.852;5.676;2023-08-06T09:00:27;14.50;99.90
24470;DHT22;12635;50.852;5.676;2023-08-06T09:02:56;14.60;99.90
24470;DHT22;12635;50.852;5.676;2023-08-06T09:05:24;14.60;99.90
24470;DHT22;12635;50.852;5.676;2023-08-06T09:07:51;14.50;99.90
24470;DHT22;12635;50.852;5.676;2023-08-06T09:10:19;14.50;99.90
24470;DHT22;12635;50.852;5.676;2023-08-06T09:12:48;14.50;99.90
24470;DHT22;12635;50.852;5.676;2023-08-06T09:15:18;14.40;99.90
24470;DHT22;12635;50.852;5.676;2023-08-06T09:17:45;14.40;99.90
24470;DHT22;12635;50.852;5.676;2023-08-06T09:20:14;14.30;99.90
24470;DHT22;12635;50.852;5.676;2023-08-06T09:22:41;14.30;99.90
24470;DHT22;12635;50.852;5.676;2023-08-06T09:25:09;14.20;99.90
24470;DHT22;12635;50.852;5.676;2023-08-06T09:27:37;14.30;99.90
24470;DHT22;12635;50.852;5.676;2023-08-06T09:30:04;14.30;99.90
24470;DHT22;12635;50.852;5.676;2023-08-06T09:32:44;14.20;99.90
24470;DHT22;12635;50.852;5.676;2023-08-06T09:35:15;14.20;99.90
24470;DHT22;12635;50.852;5.676;2023-08-06T09:37:42;14.20;99.90
24470;DHT22;12635;50.852;5.676;2023-08-06T09:40:22;14.10;99.90
24470;DHT22;12635;50.852;5.676;2023-08-06T09:42:50;14.10;99.90
24470;DHT22;12635;50.852;5.676;2023-08-06T09:45:17;14.10;99.90
24470;DHT22;12635;50.852;5.676;2023-08-06T09:47:44;14.20;99.90
24470;DHT22;12635;50.852;5.676;2023-08-06T09:50:16;14.20;99.90
24470;DHT22;12635;50.852;5.676;2023-08-06T09:52:43;14.30;99.90
24470;DHT22;12635;50.852;5.676;2023-08-06T09:55:10;14.30;99.90
24470;DHT22;12635;50.852;5.676;2023-08-06T09:57:38;14.40;99.90
24470;DHT22;12635;50.852;5.676;2023-08-06T10:00:06;14.40;99.90
24470;DHT22;12635;50.852;5.676;2023-08-06T10:02:35;14.30;99.90
24470;DHT22;12635;50.852;5.676;2023-08-06T10:05:02;14.20;99.90
24470;DHT22;12635;50.852;5.676;2023-08-06T10:07:31;14.30;99.90
24470;DHT22;12635;50.852;5.676;2023-08-06T10:09:58;14.30;99.90
24470;DHT22;12635;50.852;5.676;2023-08-06T10:12:25;14.30;99.90
24470;DHT22;12635;50.852;5.676;2023-08-06T10:14:54;14.30;99.90
24470;DHT22;12635;50.852;5.676;2023-08-06T10:17:22;14.20;99.90
24470;DHT22;12635;50.852;5.676;2023-08-06T10:19:49;14.20;99.90
24470;DHT22;12635;50.852;5.676;2023-08-06T10:22:16;14.20;99.90
24470;DHT22;12635;50.852;5.676;2023-08-06T10:24:51;14.10;99.90
24470;DHT22;12635;50.852;5.676;2023-08-06T10:27:21;14.00;99.90
24470;DHT22;12635;50.852;5.676;2023-08-06T10:29:48;14.10;99.90
24470;DHT22;12635;50.852;5.676;2023-08-06T10:32:15;14.10;99.90
24470;DHT22;12635;50.852;5.676;2023-08-06T10:34:53;14.20;99.90
24470;DHT22;12635;50.852;5.676;2023-08-06T10:37:20;14.20;99.90
24470;DHT22;12635;50.852;5.676;2023-08-06T10:39:48;14.10;99.90
24470;DHT22;12635;50.852;5.676;2023-08-06T10:42:20;14.10;99.90
24470;DHT22;12635;50.852;5.676;2023-08-06T10:47:37;14.10;99.90
24470;DHT22;12635;50.852;5.676;2023-08-06T10:50:04;14.10;99.90
24470;DHT22;12635;50.852;5.676;2023-08-06T10:52:31;14.00;99.90
24470;DHT22;12635;50.852;5.676;2023-08-06T10:54:58;14.10;99.90
24470;DHT22;12635;50.852;5.676;2023-08-06T10:57:27;14.00;99.90
24470;DHT22;12635;50.852;5.676;2023-08-06T10:59:54;13.90;99.90
24470;DHT22;12635;50.852;5.676;2023-08-06T11:02:21;13.80;99.90
24470;DHT22;12635;50.852;5.676;2023-08-06T11:04:48;13.70;99.90
24470;DHT22;12635;50.852;5.676;2023-08-06T11:07:15;13.80;99.90
24470;DHT22;12635;50.852;5.676;2023-08-06T11:09:42;13.70;99.90
24470;DHT22;12635;50.852;5.676;2023-08-06T11:12:09;13.70;99.90
24470;DHT22;12635;50.852;5.676;2023-08-06T11:14:37;13.80;99.90
24470;DHT22;12635;50.852;5.676;2023-08-06T11:17:05;13.80;99.90
24470;DHT22;12635;50.852;5.676;2023-08-06T11:19:32;13.80;99.90
24470;DHT22;12635;50.852;5.676;2023-08-06T11:21:58;13.80;99.90
24470;DHT22;12635;50.852;5.676;2023-08-06T11:24:27;13.80;99.90
24470;DHT22;12635;50.852;5.676;2023-08-06T11:26:54;13.80;99.90
24470;DHT22;12635;50.852;5.676;2023-08-06T11:29:21;13.90;99.90
24470;DHT22;12635;50.852;5.676;2023-08-06T11:31:51;13.90;99.90
24470;DHT22;12635;50.852;5.676;2023-08-06T11:34:17;13.80;99.90
24470;DHT22;12635;50.852;5.676;2023-08-06T11:36:44;13.80;99.90
24470;DHT22;12635;50.852;5.676;2023-08-06T11:39:11;13.90;99.90
24470;DHT22;12635;50.852;5.676;2023-08-06T11:41:38;13.90;99.90
24470;DHT22;12635;50.852;5.676;2023-08-06T11:44:10;14.00;99.90
24470;DHT22;12635;50.852;5.676;2023-08-06T11:49:40;14.10;99.90
24470;DHT22;12635;50.852;5.676;2023-08-06T11:52:10;14.20;99.90
24470;DHT22;12635;50.852;5.676;2023-08-06T11:54:37;14.10;99.90
24470;DHT22;12635;50.852;5.676;2023-08-06T11:57:05;14.00;99.90
24470;DHT22;12635;50.852;5.676;2023-08-06T11:59:32;14.10;99.90
24470;DHT22;12635;50.852;5.676;2023-08-06T12:01:59;14.10;99.90
24470;DHT22;12635;50.852;5.676;2023-08-06T12:04:26;14.00;99.90
24470;DHT22;12635;50.852;5.676;2023-08-06T12:06:55;14.10;99.90
24470;DHT22;12635;50.852;5.676;2023-08-06T12:09:22;14.10;99.90
24470;DHT22;12635;50.852;5.676;2023-08-06T12:11:49;14.20;99.90
24470;DHT22;12635;50.852;5.676;2023-08-06T12:14:16;14.20;99.90
24470;DHT22;12635;50.852;5.676;2023-08-06T12:16:43;14.40;99.90
24470;DHT22;12635;50.852;5.676;2023-08-06T12:19:09;14.60;99.90
24470;DHT22;12635;50.852;5.676;2023-08-06T12:21:36;14.70;99.90
24470;DHT22;12635;50.852;5.676;2023-08-06T12:24:05;14.70;99.90
24470;DHT22;12635;50.852;5.676;2023-08-06T12:26:33;14.80;99.90
24470;DHT22;12635;50.852;5.676;2023-08-06T12:29:00;14.90;99.90
24470;DHT22;12635;50.852;5.676;2023-08-06T12:31:26;15.10;99.90
24470;DHT22;12635;50.852;5.676;2023-08-06T12:33:53;15.00;99.90
24470;DHT22;12635;50.852;5.676;2023-08-06T12:36:20;15.00;99.90
24470;DHT22;12635;50.852;5.676;2023-08-06T12:38:47;14.80;99.90
24470;DHT22;12635;50.852;5.676;2023-08-06T12:41:15;14.60;99.90
24470;DHT22;12635;50.852;5.676;2023-08-06T12:43:42;14.40;99.90
24470;DHT22;12635;50.852;5.676;2023-08-06T12:46:09;14.30;99.90
24470;DHT22;12635;50.852;5.676;2023-08-06T12:48:37;14.40;99.90
24470;DHT22;12635;50.852;5.676;2023-08-06T12:51:04;14.60;99.90
24470;DHT22;12635;50.852;5.676;2023-08-06T12:53:31;14.70;99.90
24470;DHT22;12635;50.852;5.676;2023-08-06T12:55:58;14.70;99.90
24470;DHT22;12635;50.852;5.676;2023-08-06T12:58:26;14.40;99.90
24470;DHT22;12635;50.852;5.676;2023-08-06T13:00:53;14.30;99.90
24470;DHT22;12635;50.852;5.676;2023-08-06T13:03:20;14.20;99.90
24470;DHT22;12635;50.852;5.676;2023-08-06T13:05:47;14.10;99.90
24470;DHT22;12635;50.852;5.676;2023-08-06T13:08:14;14.10;99.90
24470;DHT22;12635;50.852;5.676;2023-08-06T13:10:41;14.00;99.90
24470;DHT22;12635;50.852;5.676;2023-08-06T13:13:08;14.10;99.90
24470;DHT22;12635;50.852;5.676;2023-08-06T13:15:37;14.00;99.90
24470;DHT22;12635;50.852;5.676;2023-08-06T13:18:03;14.00;99.90
24470;DHT22;12635;50.852;5.676;2023-08-06T13:20:30;13.90;99.90
24470;DHT22;12635;50.852;5.676;2023-08-06T13:22:57;14.00;99.90
24470;DHT22;12635;50.852;5.676;2023-08-06T13:25:26;14.00;99.90
24470;DHT22;12635;50.852;5.676;2023-08-06T13:27:53;14.00;99.90
24470;DHT22;12635;50.852;5.676;2023-08-06T13:30:21;13.90;99.90
24470;DHT22;12635;50.852;5.676;2023-08-06T13:32:50;13.90;99.90
24470;DHT22;12635;50.852;5.676;2023-08-06T13:35:16;14.00;99.90
24470;DHT22;12635;50.852;5.676;2023-08-06T13:37:43;13.90;99.90
24470;DHT22;12635;50.852;5.676;2023-08-06T13:40:10;14.00;99.90
24470;DHT22;12635;50.852;5.676;2023-08-06T13:42:37;13.90;99.90
24470;DHT22;12635;50.852;5.676;2023-08-06T13:45:05;13.90;99.90
24470;DHT22;12635;50.852;5.676;2023-08-06T13:47:32;13.80;99.90
24470;DHT22;12635;50.852;5.676;2023-08-06T13:50:00;13.80;99.90
24470;DHT22;12635;50.852;5.676;2023-08-06T13:52:28;13.80;99.90
24470;DHT22;12635;50.852;5.676;2023-08-06T13:54:55;13.90;99.90
24470;DHT22;12635;50.852;5.676;2023-08-06T13:57:22;13.90;99.90
24470;DHT22;12635;50.852;5.676;2023-08-06T13:59:48;14.00;99.90
24470;DHT22;12635;50.852;5.676;2023-08-06T14:02:15;13.90;99.90
24470;DHT22;12635;50.852;5.676;2023-08-06T14:04:42;13.80;99.90
24470;DHT22;12635;50.852;5.676;2023-08-06T14:07:10;13.80;99.90
24470;DHT22;12635;50.852;5.676;2023-08-06T14:09:37;13.80;99.90
24470;DHT22;12635;50.852;5.676;2023-08-06T14:12:05;13.70;99.90
24470;DHT22;12635;50.852;5.676;2023-08-06T14:14:32;13.80;99.90
24470;DHT22;12635;50.852;5.676;2023-08-06T14:16:59;13.70;99.90
24470;DHT22;12635;50.852;5.676;2023-08-06T14:19:26;13.70;99.90
24470;DHT22;12635;50.852;5.676;2023-08-06T14:21:54;13.70;99.90
24470;DHT22;12635;50.852;5.676;2023-08-06T14:24:22;13.60;99.90
24470;DHT22;12635;50.852;5.676;2023-08-06T14:26:49;13.60;99.90
24470;DHT22;12635;50.852;5.676;2023-08-06T14:29:17;13.60;99.90
24470;DHT22;12635;50.852;5.676;2023-08-06T14:31:44;13.60;99.90
24470;DHT22;12635;50.852;5.676;2023-08-06T14:34:11;13.60;99.90
24470;DHT22;12635;50.852;5.676;2023-08-06T14:36:37;13.70;99.90
24470;DHT22;12635;50.852;5.676;2023-08-06T14:39:05;13.70;99.90
24470;DHT22;12635;50.852;5.676;2023-08-06T14:41:33;13.70;99.90
24470;DHT22;12635;50.852;5.676;2023-08-06T14:44:00;13.90;99.90
24470;DHT22;12635;50.852;5.676;2023-08-06T14:46:27;14.00;99.90
24470;DHT22;12635;50.852;5.676;2023-08-06T14:48:54;14.00;99.90
24470;DHT22;12635;50.852;5.676;2023-08-06T14:51:21;14.00;99.90
24470;DHT22;12635;50.852;5.676;2023-08-06T14:53:48;14.00;99.90
24470;DHT22;12635;50.852;5.676;2023-08-06T14:56:15;14.10;99.90
24470;DHT22;12635;50.852;5.676;2023-08-06T14:58:43;14.10;99.90
24470;DHT22;12635;50.852;5.676;2023-08-06T15:01:10;14.30;99.90
24470;DHT22;12635;50.852;5.676;2023-08-06T15:03:37;14.50;99.90
24470;DHT22;12635;50.852;5.676;2023-08-06T15:06:04;14.40;99.90
24470;DHT22;12635;50.852;5.676;2023-08-06T15:08:31;14.40;99.90
24470;DHT22;12635;50.852;5.676;2023-08-06T15:10:58;14.40;99.90
24470;DHT22;12635;50.852;5.676;2023-08-06T15:13:27;14.30;99.90
24470;DHT22;12635;50.852;5.676;2023-08-06T15:15:55;14.30;99.90
24470;DHT22;12635;50.852;5.676;2023-08-06T15:18:22;14.30;99.90
24470;DHT22;12635;50.852;5.676;2023-08-06T15:20:49;14.20;99.90
24470;DHT22;12635;50.852;5.676;2023-08-06T15:23:16;14.30;99.90
24470;DHT22;12635;50.852;5.676;2023-08-06T15:25:43;14.30;99.90
24470;DHT22;12635;50.852;5.676;2023-08-06T15:28:10;14.10;99.90
24470;DHT22;12635;50.852;5.676;2023-08-06T15:30:37;14.20;99.90
24470;DHT22;12635;50.852;5.676;2023-08-06T15:33:06;14.10;99.90
24470;DHT22;12635;50.852;5.676;2023-08-06T15:35:33;14.10;99.90
24470;DHT22;12635;50.852;5.676;2023-08-06T15:38:00;14.10;99.90